createdAt,value
2022-11-14T00:00:11.109Z,50.834827
2022-11-14T00:01:11.161Z,50.834820
2022-11-14T00:02:11.150Z,50.834797
2022-11-14T00:03:11.118Z,50.834801
2022-11-14T00:04:11.161Z,50.834801
2022-11-14T00:05:11.086Z,50.834812
2022-11-14T00:06:11.054Z,50.834831
2022-11-14T00:07:11.127Z,50.834797
2022-11-14T00:08:11.040Z,50.834824
2022-11-14T00:09:11.030Z,50.834820
2022-11-14T00:10:11.058Z,50.834805
2022-11-14T00:11:11.042Z,50.834816
2022-11-14T00:12:11.025Z,50.834808
2022-11-14T00:13:11.005Z,50.834808
2022-11-14T00:14:11.033Z,50.834789
2022-11-14T00:15:10.977Z,50.834797
2022-11-14T00:16:10.983Z,50.834801
2022-11-14T00:17:11.069Z,50.834801
2022-11-14T00:18:10.991Z,50.834797
2022-11-14T00:19:11.873Z,50.834759
2022-11-14T00:20:10.956Z,50.834774
2022-11-14T00:21:10.947Z,50.834782
2022-11-14T00:22:10.935Z,50.834793
2022-11-14T00:23:10.919Z,50.834812
2022-11-14T00:24:10.925Z,50.834808
2022-11-14T00:25:10.920Z,50.834816
2022-11-14T00:26:11.969Z,50.834785
2022-11-14T00:27:10.879Z,50.834827
2022-11-14T00:28:10.912Z,50.834801
2022-11-14T00:29:10.872Z,50.834801
2022-11-14T00:30:10.873Z,50.834812
2022-11-14T00:31:10.853Z,50.834805
2022-11-14T00:32:10.888Z,50.834793
2022-11-14T00:33:13.651Z,50.834778
2022-11-14T00:34:11.849Z,50.834801
2022-11-14T00:35:10.839Z,50.834789
2022-11-14T00:36:10.822Z,50.834797
2022-11-14T00:37:10.837Z,50.834801
2022-11-14T00:38:10.794Z,50.834812
2022-11-14T00:39:10.796Z,50.834793
2022-11-14T00:40:10.799Z,50.834782
2022-11-14T00:41:10.783Z,50.834774
2022-11-14T00:42:10.774Z,50.834785
2022-11-14T00:43:10.777Z,50.834789
2022-11-14T00:44:10.775Z,50.834782
2022-11-14T00:45:10.849Z,50.834793
2022-11-14T00:46:10.771Z,50.834785
2022-11-14T00:47:10.752Z,50.834785
2022-11-14T00:48:10.724Z,50.834797
2022-11-14T00:49:10.854Z,50.834793
2022-11-14T00:50:10.708Z,50.834801
2022-11-14T00:51:10.704Z,50.834808
2022-11-14T00:52:10.714Z,50.834789
2022-11-14T00:53:10.691Z,50.834793
2022-11-14T00:54:10.687Z,50.834785
2022-11-14T00:55:10.690Z,50.834797
2022-11-14T00:56:10.658Z,50.834770
2022-11-14T00:57:10.720Z,50.834812
2022-11-14T00:58:10.685Z,50.834824
2022-11-14T00:59:10.673Z,50.834854
2022-11-14T01:00:10.735Z,50.834839
2022-11-14T01:01:10.673Z,50.834858
2022-11-14T01:02:10.595Z,50.834885
2022-11-14T01:03:10.645Z,50.834843
2022-11-14T01:04:10.613Z,50.834862
2022-11-14T01:05:10.724Z,50.834831
2022-11-14T01:06:10.581Z,50.834835
2022-11-14T01:07:10.573Z,50.834835
2022-11-14T01:08:10.596Z,50.834850
2022-11-14T01:09:10.770Z,50.834854
2022-11-14T01:10:10.566Z,50.834843
2022-11-14T01:11:10.591Z,50.834835
2022-11-14T01:12:10.557Z,50.834827
2022-11-14T01:13:10.549Z,50.834843
2022-11-14T01:14:10.525Z,50.834835
2022-11-14T01:15:10.521Z,50.834782
2022-11-14T01:16:10.531Z,50.834831
2022-11-14T01:17:10.510Z,50.834846
2022-11-14T01:18:10.495Z,50.834812
2022-11-14T01:19:10.488Z,50.834824
2022-11-14T01:20:10.486Z,50.834858
2022-11-14T01:21:10.596Z,50.834839
2022-11-14T01:22:10.479Z,50.834824
2022-11-14T01:23:10.498Z,50.834820
2022-11-14T01:24:10.514Z,50.834831
2022-11-14T01:25:10.458Z,50.834797
2022-11-14T01:26:10.434Z,50.834835
2022-11-14T01:27:10.505Z,50.834843
2022-11-14T01:28:10.430Z,50.834824
2022-11-14T01:29:10.482Z,50.834824
2022-11-14T01:30:10.413Z,50.834835
2022-11-14T01:31:10.457Z,50.834824
2022-11-14T01:32:10.386Z,50.834843
2022-11-14T01:33:10.402Z,50.834793
2022-11-14T01:34:10.364Z,50.834831
2022-11-14T01:35:10.363Z,50.834835
2022-11-14T01:36:10.391Z,50.834831
2022-11-14T01:37:10.448Z,50.834812
2022-11-14T01:38:10.370Z,50.834812
2022-11-14T01:39:10.351Z,50.834808
2022-11-14T01:40:10.337Z,50.834850
2022-11-14T01:41:10.323Z,50.834850
2022-11-14T01:42:10.360Z,50.834816
2022-11-14T01:43:10.446Z,50.834824
2022-11-14T01:44:10.332Z,50.834827
2022-11-14T02:01:57.245Z,50.834843
2022-11-14T02:02:56.982Z,50.834835
2022-11-14T02:03:56.950Z,50.834812
2022-11-14T02:04:56.987Z,50.834816
2022-11-14T02:05:56.981Z,50.834827
2022-11-14T02:06:56.949Z,50.834843
2022-11-14T02:07:56.970Z,50.834824
2022-11-14T02:08:56.934Z,50.834827
2022-11-14T02:09:56.920Z,50.834820
2022-11-14T02:10:56.986Z,50.834820
2022-11-14T02:12:28.761Z,50.834854
2022-11-14T02:12:56.836Z,50.834862
2022-11-14T02:13:56.831Z,50.834843
2022-11-14T02:15:28.737Z,50.834824
2022-11-14T02:15:56.800Z,50.834820
2022-11-14T02:17:22.660Z,50.834835
2022-11-14T02:17:58.784Z,50.834831
2022-11-14T02:18:56.813Z,50.834843
2022-11-14T02:20:00.805Z,50.834858
2022-11-14T02:20:57.770Z,50.834835
2022-11-14T02:21:56.780Z,50.834827
2022-11-14T02:22:56.760Z,50.834843
2022-11-14T02:23:56.753Z,50.834827
2022-11-14T02:24:56.734Z,50.834816
2022-11-14T02:25:56.750Z,50.834816
2022-11-14T02:26:56.744Z,50.834858
2022-11-14T02:27:56.715Z,50.834862
2022-11-14T02:28:56.760Z,50.834827
2022-11-14T02:29:56.704Z,50.834816
2022-11-14T02:30:57.705Z,50.834820
2022-11-14T02:31:56.692Z,50.834854
2022-11-14T02:33:10.417Z,50.834816
2022-11-14T02:33:59.413Z,50.834812
2022-11-14T02:34:56.671Z,50.834820
2022-11-14T02:35:56.725Z,50.834831
2022-11-14T02:36:56.664Z,50.834824
2022-11-14T02:37:56.631Z,50.834820
2022-11-14T02:38:56.625Z,50.834846
2022-11-14T02:39:56.613Z,50.834835
2022-11-14T02:40:56.655Z,50.834808
2022-11-14T02:41:56.647Z,50.834816
2022-11-14T02:42:56.594Z,50.834835
2022-11-14T02:43:56.584Z,50.834824
2022-11-14T02:44:56.609Z,50.834835
2022-11-14T02:45:59.179Z,50.834808
2022-11-14T02:46:57.589Z,50.834808
2022-11-14T02:47:56.584Z,50.834812
2022-11-14T02:48:56.680Z,50.834824
2022-11-14T02:49:56.558Z,50.834808
2022-11-14T02:50:57.572Z,50.834835
2022-11-14T02:51:56.551Z,50.834816
2022-11-14T02:52:56.540Z,50.834827
2022-11-14T02:53:57.412Z,50.834827
2022-11-14T02:54:56.516Z,50.834808
2022-11-14T02:55:56.546Z,50.834839
2022-11-14T02:56:56.502Z,50.834835
2022-11-14T02:57:56.474Z,50.834816
2022-11-14T02:58:56.508Z,50.834824
2022-11-14T02:59:56.505Z,50.834812
2022-11-14T03:01:19.106Z,50.834839
2022-11-14T03:01:58.536Z,50.834835
2022-11-14T03:02:57.380Z,50.834835
2022-11-14T03:03:56.435Z,50.834858
2022-11-14T03:04:56.566Z,50.834873
2022-11-14T03:05:57.376Z,50.834869
2022-11-14T03:06:56.498Z,50.834862
2022-11-14T03:07:56.447Z,50.834824
2022-11-14T03:08:56.408Z,50.834812
2022-11-14T03:09:56.397Z,50.834824
2022-11-14T03:10:56.504Z,50.834839
2022-11-14T03:11:56.419Z,50.834816
2022-11-14T03:12:56.496Z,50.834831
2022-11-14T03:13:56.415Z,50.834831
2022-11-14T03:14:56.390Z,50.834827
2022-11-14T03:15:56.389Z,50.834827
2022-11-14T03:16:56.361Z,50.834808
2022-11-14T03:17:56.377Z,50.834843
2022-11-14T03:18:56.351Z,50.834843
2022-11-14T03:19:56.316Z,50.834846
2022-11-14T03:20:56.393Z,50.834816
2022-11-14T03:21:56.313Z,50.834831
2022-11-14T03:22:56.374Z,50.834793
2022-11-14T03:23:56.311Z,50.834808
2022-11-14T03:24:56.329Z,50.834805
2022-11-14T03:25:56.272Z,50.834827
2022-11-14T03:26:56.290Z,50.834835
2022-11-14T03:27:56.303Z,50.834824
2022-11-14T03:28:56.257Z,50.834820
2022-11-14T03:29:56.265Z,50.834805
2022-11-14T03:30:56.253Z,50.834789
2022-11-14T03:31:56.282Z,50.834816
2022-11-14T03:32:56.229Z,50.834820
2022-11-14T03:33:56.227Z,50.834805
2022-11-14T03:34:56.224Z,50.834812
2022-11-14T03:35:56.201Z,50.834812
2022-11-14T03:36:56.267Z,50.834801
2022-11-14T03:37:56.721Z,50.834797
2022-11-14T03:38:57.167Z,50.834793
2022-11-14T03:39:56.189Z,50.834789
2022-11-14T03:40:56.177Z,50.834770
2022-11-14T03:41:56.162Z,50.834797
2022-11-14T03:42:56.213Z,50.834801
2022-11-14T03:43:56.170Z,50.834797
2022-11-14T03:44:56.176Z,50.834816
2022-11-14T03:45:56.125Z,50.834820
2022-11-14T03:46:56.112Z,50.834808
2022-11-14T04:05:56.104Z,50.834854
2022-11-14T04:06:56.203Z,50.834881
2022-11-14T04:07:56.119Z,50.834827
2022-11-14T04:08:56.101Z,50.834839
2022-11-14T04:09:56.120Z,50.834812
2022-11-14T04:10:56.091Z,50.834854
2022-11-14T04:11:56.073Z,50.834858
2022-11-14T04:12:56.065Z,50.834846
2022-11-14T04:13:56.261Z,50.834839
2022-11-14T04:14:56.052Z,50.834831
2022-11-14T04:15:56.052Z,50.834843
2022-11-14T04:16:56.063Z,50.834812
2022-11-14T04:17:56.027Z,50.834831
2022-11-14T04:18:56.126Z,50.834816
2022-11-14T04:19:56.011Z,50.834801
2022-11-14T04:20:56.023Z,50.834820
2022-11-14T04:21:55.994Z,50.834820
2022-11-14T04:22:55.987Z,50.834816
2022-11-14T04:23:55.999Z,50.834824
2022-11-14T04:24:55.999Z,50.834816
2022-11-14T04:25:55.985Z,50.834827
2022-11-14T04:26:55.961Z,50.834839
2022-11-14T04:27:55.962Z,50.834820
2022-11-14T04:28:55.939Z,50.834835
2022-11-14T04:29:55.949Z,50.834824
2022-11-14T04:30:55.921Z,50.834835
2022-11-14T04:31:55.911Z,50.834839
2022-11-14T04:32:56.908Z,50.834820
2022-11-14T04:33:55.952Z,50.834827
2022-11-14T04:34:56.001Z,50.834824
2022-11-14T04:35:55.907Z,50.834835
2022-11-14T04:36:55.882Z,50.834835
2022-11-14T04:37:55.884Z,50.834827
2022-11-14T04:38:56.728Z,50.834835
2022-11-14T04:39:55.879Z,50.834850
2022-11-14T04:40:55.909Z,50.834850
2022-11-14T04:41:55.873Z,50.834862
2022-11-14T04:42:55.845Z,50.834846
2022-11-14T04:43:55.840Z,50.834850
2022-11-14T04:44:55.890Z,50.834858
2022-11-14T04:45:55.930Z,50.834854
2022-11-14T04:46:55.861Z,50.834831
2022-11-14T04:47:55.799Z,50.834843
2022-11-14T04:48:55.794Z,50.834820
2022-11-14T04:49:55.800Z,50.834850
2022-11-14T04:50:55.932Z,50.834831
2022-11-14T04:51:55.864Z,50.834831
2022-11-14T04:52:55.808Z,50.834831
2022-11-14T04:53:55.788Z,50.834854
2022-11-14T04:54:55.745Z,50.834839
2022-11-14T04:55:55.764Z,50.834835
2022-11-14T04:56:55.758Z,50.834793
2022-11-14T04:57:55.713Z,50.834801
2022-11-14T04:58:55.717Z,50.834797
2022-11-14T04:59:55.735Z,50.834808
2022-11-14T05:00:55.810Z,50.834824
2022-11-14T05:01:55.790Z,50.834805
2022-11-14T05:02:56.728Z,50.834805
2022-11-14T05:03:55.776Z,50.834820
2022-11-14T05:04:55.668Z,50.834869
2022-11-14T05:05:55.661Z,50.834850
2022-11-14T05:06:55.760Z,50.834835
2022-11-14T05:07:55.669Z,50.834869
2022-11-14T05:08:55.664Z,50.834892
2022-11-14T05:09:55.660Z,50.834862
2022-11-14T05:10:55.620Z,50.834839
2022-11-14T05:11:55.643Z,50.834839
2022-11-14T05:12:55.679Z,50.834808
2022-11-14T05:13:55.637Z,50.834801
2022-11-14T05:14:55.596Z,50.834866
2022-11-14T05:15:55.610Z,50.834858
2022-11-14T05:16:55.573Z,50.834843
2022-11-14T05:17:55.580Z,50.834824
2022-11-14T05:18:55.624Z,50.834805
2022-11-14T05:19:56.563Z,50.834808
2022-11-14T05:20:55.585Z,50.834808
2022-11-14T05:21:55.540Z,50.834816
2022-11-14T05:22:55.545Z,50.834805
2022-11-14T05:23:55.538Z,50.834789
2022-11-14T05:24:55.524Z,50.834816
2022-11-14T05:25:58.690Z,50.834820
2022-11-14T05:26:56.517Z,50.834801
2022-11-14T05:27:55.512Z,50.834782
2022-11-14T05:28:55.484Z,50.834805
2022-11-14T05:29:55.492Z,50.834831
2022-11-14T05:30:55.519Z,50.834824
2022-11-14T05:31:55.496Z,50.834831
2022-11-14T05:32:56.252Z,50.834812
2022-11-14T05:33:55.478Z,50.834789
2022-11-14T05:34:55.495Z,50.834774
2022-11-14T05:35:55.454Z,50.834816
2022-11-14T05:36:55.440Z,50.834827
2022-11-14T05:37:59.087Z,50.834820
2022-11-14T05:38:56.428Z,50.834869
2022-11-14T05:39:55.452Z,50.834843
2022-11-14T05:40:55.408Z,50.834846
2022-11-14T05:41:55.389Z,50.834827
2022-11-14T05:42:55.503Z,50.834843
2022-11-14T05:43:55.395Z,50.834835
2022-11-14T05:44:56.376Z,50.834805
2022-11-14T05:45:55.381Z,50.834835
2022-11-14T05:46:55.373Z,50.834835
2022-11-14T05:47:55.344Z,50.834820
2022-11-14T05:48:55.340Z,50.834782
2022-11-14T05:49:55.337Z,50.834820
2022-11-14T05:50:56.370Z,50.834793
2022-11-14T05:51:55.349Z,50.834782
2022-11-14T05:52:55.306Z,50.834808
2022-11-14T05:53:55.324Z,50.834824
2022-11-14T05:54:55.294Z,50.834839
2022-11-14T05:55:55.311Z,50.834839
2022-11-14T05:56:55.266Z,50.834843
2022-11-14T05:57:55.285Z,50.834850
2022-11-14T05:58:55.289Z,50.834820
2022-11-14T05:59:55.259Z,50.834843
2022-11-14T06:00:55.290Z,50.834812
2022-11-14T06:01:55.279Z,50.834785
2022-11-14T06:02:55.212Z,50.834839
2022-11-14T06:03:56.245Z,50.834820
2022-11-14T06:04:55.210Z,50.834839
2022-11-14T06:05:55.201Z,50.834816
2022-11-14T06:06:55.260Z,50.834808
2022-11-14T06:07:55.203Z,50.834835
2022-11-14T06:08:55.192Z,50.834839
2022-11-14T06:09:55.170Z,50.834866
2022-11-14T06:10:56.241Z,50.834824
2022-11-14T06:11:55.225Z,50.834862
2022-11-14T06:12:55.181Z,50.834843
2022-11-14T06:13:55.195Z,50.834831
2022-11-14T06:14:55.181Z,50.834850
2022-11-14T06:15:55.163Z,50.834858
2022-11-14T06:16:55.145Z,50.834827
2022-11-14T06:17:55.115Z,50.834824
2022-11-14T06:18:55.116Z,50.834846
2022-11-14T06:19:55.100Z,50.834816
2022-11-14T06:20:55.144Z,50.834839
2022-11-14T06:21:55.091Z,50.834827
2022-11-14T06:22:55.092Z,50.834797
2022-11-14T06:23:55.093Z,50.834797
2022-11-14T06:24:55.068Z,50.834808
2022-11-14T06:25:55.093Z,50.834782
2022-11-14T06:26:55.046Z,50.834785
2022-11-14T06:27:55.049Z,50.834793
2022-11-14T06:28:55.064Z,50.834774
2022-11-14T06:29:55.045Z,50.834797
2022-11-14T06:30:55.130Z,50.834808
2022-11-14T06:31:55.040Z,50.834812
2022-11-14T06:32:55.052Z,50.834827
2022-11-14T06:33:55.114Z,50.834820
2022-11-14T06:34:55.032Z,50.834831
2022-11-14T06:35:55.031Z,50.834816
2022-11-14T06:36:55.017Z,50.834805
2022-11-14T06:37:54.980Z,50.834789
2022-11-14T06:38:54.982Z,50.834808
2022-11-14T06:39:55.023Z,50.834805
2022-11-14T06:40:54.971Z,50.834801
2022-11-14T06:41:54.968Z,50.834797
2022-11-14T06:42:54.941Z,50.834801
2022-11-14T06:43:54.949Z,50.834808
2022-11-14T06:44:54.970Z,50.834801
2022-11-14T06:45:54.948Z,50.834785
2022-11-14T06:46:54.885Z,50.834824
2022-11-14T06:47:54.896Z,50.834816
2022-11-14T06:48:54.887Z,50.834820
2022-11-14T06:49:54.896Z,50.834812
2022-11-14T06:50:54.881Z,50.834816
2022-11-14T06:51:54.916Z,50.834808
2022-11-14T06:52:54.891Z,50.834801
2022-11-14T06:53:54.856Z,50.834797
2022-11-14T06:54:54.841Z,50.834789
2022-11-14T06:55:54.864Z,50.834797
2022-11-14T06:56:54.847Z,50.834797
2022-11-14T06:57:54.873Z,50.834801
2022-11-14T06:58:54.803Z,50.834808
2022-11-14T06:59:54.919Z,50.834808
2022-11-14T07:00:54.804Z,50.834808
2022-11-14T07:01:54.786Z,50.834812
2022-11-14T07:02:54.911Z,50.834778
2022-11-14T07:03:54.783Z,50.834789
2022-11-14T07:04:54.754Z,50.834789
2022-11-14T07:05:54.756Z,50.834785
2022-11-14T07:06:54.822Z,50.834793
2022-11-14T07:07:54.870Z,50.834793
2022-11-14T07:08:54.723Z,50.834805
2022-11-14T07:09:54.779Z,50.834793
2022-11-14T07:10:54.714Z,50.834797
2022-11-14T07:11:54.725Z,50.834785
2022-11-14T07:12:54.741Z,50.834778
2022-11-14T07:13:54.690Z,50.834805
2022-11-14T07:14:54.700Z,50.834766
2022-11-14T07:15:54.683Z,50.834789
2022-11-14T07:16:54.690Z,50.834808
2022-11-14T07:17:54.711Z,50.834843
2022-11-14T07:18:54.666Z,50.834816
2022-11-14T07:19:54.649Z,50.834805
2022-11-14T07:20:54.625Z,50.834785
2022-11-14T07:21:54.641Z,50.834793
2022-11-14T07:22:54.634Z,50.834801
2022-11-14T07:23:54.648Z,50.834793
2022-11-14T07:24:54.639Z,50.834797
2022-11-14T07:25:54.631Z,50.834785
2022-11-14T07:26:54.602Z,50.834782
2022-11-14T07:27:54.596Z,50.834759
2022-11-14T07:29:00.719Z,50.834766
2022-11-14T07:29:56.566Z,50.834785
2022-11-14T07:30:54.584Z,50.834785
2022-11-14T07:32:26.552Z,50.834766
2022-11-14T07:32:54.620Z,50.834782
2022-11-14T07:33:54.556Z,50.834770
2022-11-14T07:34:59.224Z,50.834770
2022-11-14T07:35:56.553Z,50.834755
2022-11-14T07:36:54.546Z,50.834743
2022-11-14T07:37:54.523Z,50.834774
2022-11-14T07:38:54.526Z,50.834763
2022-11-14T07:39:54.604Z,50.834778
2022-11-14T07:40:59.333Z,50.834793
2022-11-14T07:41:56.534Z,50.834778
2022-11-14T07:42:54.483Z,50.834770
2022-11-14T07:43:54.494Z,50.834759
2022-11-14T07:44:54.464Z,50.834770
2022-11-14T07:45:54.473Z,50.834755
2022-11-14T07:46:54.464Z,50.834766
2022-11-14T07:47:54.423Z,50.834774
2022-11-14T07:48:54.452Z,50.834755
2022-11-14T07:49:54.512Z,50.834766
2022-11-14T07:50:54.429Z,50.834770
2022-11-14T07:51:54.438Z,50.834785
2022-11-14T07:52:54.420Z,50.834801
2022-11-14T07:53:55.254Z,50.834793
2022-11-14T07:54:54.380Z,50.834805
2022-11-14T07:55:54.380Z,50.834805
2022-11-14T07:56:54.435Z,50.834812
2022-11-14T07:57:54.365Z,50.834805
2022-11-14T07:58:54.374Z,50.834801
2022-11-14T07:59:54.393Z,50.834766
2022-11-14T08:00:54.376Z,50.834766
2022-11-14T08:01:54.326Z,50.834797
2022-11-14T08:02:54.346Z,50.834816
2022-11-14T08:03:54.348Z,50.834801
2022-11-14T08:04:54.345Z,50.834805
2022-11-14T08:05:54.302Z,50.834812
2022-11-14T08:06:54.446Z,50.834789
2022-11-14T08:07:54.283Z,50.834820
2022-11-14T08:08:54.276Z,50.834820
2022-11-14T08:09:54.281Z,50.834793
2022-11-14T08:10:54.274Z,50.834789
2022-11-14T08:11:54.258Z,50.834782
2022-11-14T08:13:10.805Z,50.834793
2022-11-14T08:13:56.279Z,50.834827
2022-11-14T08:15:26.190Z,50.834827
2022-11-14T08:15:54.257Z,50.834801
2022-11-14T08:16:54.247Z,50.834831
2022-11-14T08:17:54.219Z,50.834805
2022-11-14T08:18:54.239Z,50.834785
2022-11-14T08:19:55.213Z,50.834789
2022-11-14T08:20:54.201Z,50.834801
2022-11-14T08:21:54.199Z,50.834778
2022-11-14T08:22:54.184Z,50.834808
2022-11-14T08:23:54.186Z,50.834824
2022-11-14T08:24:54.204Z,50.834774
2022-11-14T08:25:54.170Z,50.834793
2022-11-14T08:26:54.169Z,50.834805
2022-11-14T08:27:54.141Z,50.834808
2022-11-14T08:28:54.131Z,50.834797
2022-11-14T08:29:54.141Z,50.834808
2022-11-14T08:30:54.105Z,50.834816
2022-11-14T08:31:58.630Z,50.834808
2022-11-14T08:32:56.088Z,50.834789
2022-11-14T08:33:54.157Z,50.834846
2022-11-14T08:34:54.187Z,50.834835
2022-11-14T08:35:54.065Z,50.834866
2022-11-14T08:36:54.085Z,50.834778
2022-11-14T08:37:54.123Z,50.834820
2022-11-14T08:38:58.908Z,50.834827
2022-11-14T08:39:56.048Z,50.834812
2022-11-14T08:40:54.052Z,50.834827
2022-11-14T08:41:54.024Z,50.834827
2022-11-14T08:42:54.096Z,50.834835
2022-11-14T08:43:54.020Z,50.834831
2022-11-14T08:44:54.027Z,50.834793
2022-11-14T08:45:54.000Z,50.834824
2022-11-14T08:46:53.980Z,50.834805
2022-11-14T08:47:53.979Z,50.834816
2022-11-14T08:48:54.009Z,50.834816
2022-11-14T08:49:54.000Z,50.834824
2022-11-14T08:50:53.945Z,50.834816
2022-11-14T08:51:53.983Z,50.834812
2022-11-14T08:52:53.935Z,50.834805
2022-11-14T08:53:53.998Z,50.834805
2022-11-14T08:54:53.918Z,50.834797
2022-11-14T08:55:53.926Z,50.834808
2022-11-14T08:56:53.931Z,50.834801
2022-11-14T08:57:53.936Z,50.834801
2022-11-14T08:58:54.655Z,50.834770
2022-11-14T08:59:53.903Z,50.834778
2022-11-14T09:00:53.928Z,50.834789
2022-11-14T09:01:53.889Z,50.834812
2022-11-14T09:02:53.931Z,50.834805
2022-11-14T09:03:59.409Z,50.834778
2022-11-14T09:04:56.850Z,50.834770
2022-11-14T09:05:53.885Z,50.834797
2022-11-14T09:06:53.927Z,50.834808
2022-11-14T09:07:53.836Z,50.834782
2022-11-14T09:08:53.839Z,50.834774
2022-11-14T09:09:53.859Z,50.834801
2022-11-14T09:10:53.858Z,50.834801
2022-11-14T09:11:53.803Z,50.834782
2022-11-14T09:12:53.791Z,50.834797
2022-11-14T09:13:53.826Z,50.834801
2022-11-14T09:14:53.803Z,50.834793
2022-11-14T09:15:53.805Z,50.834801
2022-11-14T09:16:53.780Z,50.834793
2022-11-14T09:17:53.777Z,50.834797
2022-11-14T09:18:53.749Z,50.834805
2022-11-14T09:19:53.726Z,50.834808
2022-11-14T09:20:54.951Z,50.834820
2022-11-14T09:21:53.756Z,50.834793
2022-11-14T09:22:53.739Z,50.834808
2022-11-14T09:23:58.839Z,50.834785
2022-11-14T09:24:56.311Z,50.834774
2022-11-14T09:25:53.690Z,50.834797
2022-11-14T09:26:57.059Z,50.834789
2022-11-14T09:27:54.792Z,50.834789
2022-11-14T09:28:53.691Z,50.834808
2022-11-14T09:29:53.662Z,50.834789
2022-11-14T09:30:53.662Z,50.834793
2022-11-14T09:31:53.644Z,50.834766
2022-11-14T09:32:53.634Z,50.834797
2022-11-14T09:33:53.624Z,50.834782
2022-11-14T09:34:53.622Z,50.834782
2022-11-14T09:35:53.627Z,50.834808
2022-11-14T09:36:53.610Z,50.834797
2022-11-14T09:37:53.608Z,50.834808
2022-11-14T09:38:53.602Z,50.834808
2022-11-14T09:39:53.625Z,50.834797
2022-11-14T09:40:53.635Z,50.834785
2022-11-14T09:41:54.313Z,50.834805
2022-11-14T09:42:53.568Z,50.834785
2022-11-14T09:43:54.348Z,50.834778
2022-11-14T09:44:53.555Z,50.834782
2022-11-14T09:45:53.579Z,50.834793
2022-11-14T09:46:53.550Z,50.834785
2022-11-14T09:47:53.567Z,50.834805
2022-11-14T09:48:53.537Z,50.834789
2022-11-14T09:49:54.321Z,50.834797
2022-11-14T09:50:53.526Z,50.834789
2022-11-14T09:51:53.528Z,50.834789
2022-11-14T09:52:53.526Z,50.834805
2022-11-14T09:53:53.511Z,50.834812
2022-11-14T09:54:53.552Z,50.834805
2022-11-14T09:55:53.501Z,50.834785
2022-11-14T09:56:53.517Z,50.834797
2022-11-14T09:57:53.511Z,50.834805
2022-11-14T09:58:53.521Z,50.834812
2022-11-14T09:59:53.463Z,50.834793
2022-11-14T10:00:53.437Z,50.834770
2022-11-14T10:01:53.606Z,50.834770
2022-11-14T10:02:53.440Z,50.834763
2022-11-14T10:03:53.441Z,50.834759
2022-11-14T10:04:53.904Z,50.834778
2022-11-14T10:05:53.405Z,50.834793
2022-11-14T10:06:53.411Z,50.834778
2022-11-14T10:07:53.379Z,50.834778
2022-11-14T10:08:53.386Z,50.834778
2022-11-14T10:09:53.889Z,50.834751
2022-11-14T10:10:53.365Z,50.834763
2022-11-14T10:11:53.372Z,50.834755
2022-11-14T10:12:53.858Z,50.834740
2022-11-14T10:13:53.404Z,50.834751
2022-11-14T10:14:53.354Z,50.834785
2022-11-14T10:15:53.330Z,50.834785
2022-11-14T10:16:53.428Z,50.834766
2022-11-14T10:17:53.296Z,50.834778
2022-11-14T10:18:53.307Z,50.834782
2022-11-14T10:19:53.289Z,50.834785
2022-11-14T10:20:53.298Z,50.834785
2022-11-14T10:21:53.316Z,50.834782
2022-11-14T10:22:56.180Z,50.834766
2022-11-14T10:23:54.263Z,50.834766
2022-11-14T10:24:53.273Z,50.834755
2022-11-14T10:25:53.254Z,50.834778
2022-11-14T10:26:53.281Z,50.834789
2022-11-14T10:27:57.452Z,50.834782
2022-11-14T10:28:55.210Z,50.834778
2022-11-14T10:29:53.238Z,50.834797
2022-11-14T10:30:53.192Z,50.834805
2022-11-14T10:31:54.222Z,50.834808
2022-11-14T10:32:53.216Z,50.834816
2022-11-14T10:33:53.212Z,50.834808
2022-11-14T10:34:53.218Z,50.834805
2022-11-14T10:35:53.175Z,50.834793
2022-11-14T10:36:53.148Z,50.834778
2022-11-14T10:37:53.190Z,50.834801
2022-11-14T10:38:53.140Z,50.834774
2022-11-14T10:39:53.138Z,50.834801
2022-11-14T10:40:53.116Z,50.834774
2022-11-14T10:41:59.951Z,50.834778
2022-11-14T10:42:55.219Z,50.834805
2022-11-14T10:43:53.121Z,50.834805
2022-11-14T10:44:53.105Z,50.834782
2022-11-14T10:45:53.102Z,50.834793
2022-11-14T10:46:53.091Z,50.834805
2022-11-14T10:47:53.084Z,50.834808
2022-11-14T10:48:56.267Z,50.834801
2022-11-14T10:49:55.075Z,50.834805
2022-11-14T10:50:53.057Z,50.834797
2022-11-14T10:51:53.075Z,50.834793
2022-11-14T10:52:53.051Z,50.834789
2022-11-14T10:53:53.032Z,50.834785
2022-11-14T10:54:53.030Z,50.834805
2022-11-14T10:56:05.672Z,50.834835
2022-11-14T10:56:55.008Z,50.834816
2022-11-14T10:57:53.028Z,50.834801
2022-11-14T10:58:52.994Z,50.834789
2022-11-14T10:59:52.973Z,50.834782
2022-11-14T11:00:53.012Z,50.834755
2022-11-14T11:01:52.984Z,50.834755
2022-11-14T11:02:52.952Z,50.834751
2022-11-14T11:03:53.036Z,50.834751
2022-11-14T11:04:52.999Z,50.834763
2022-11-14T11:05:52.931Z,50.834763
2022-11-14T11:06:52.985Z,50.834789
2022-11-14T11:07:53.891Z,50.834797
2022-11-14T11:08:52.969Z,50.834801
2022-11-14T11:09:53.942Z,50.834789
2022-11-14T11:10:52.937Z,50.834770
2022-11-14T11:11:52.944Z,50.834782
2022-11-14T11:12:52.882Z,50.834801
2022-11-14T11:13:53.909Z,50.834793
2022-11-14T11:14:52.882Z,50.834789
2022-11-14T11:15:52.878Z,50.834789
2022-11-14T11:16:52.854Z,50.834805
2022-11-14T11:17:52.856Z,50.834801
2022-11-14T11:18:52.861Z,50.834808
2022-11-14T11:19:52.816Z,50.834797
2022-11-14T11:20:53.898Z,50.834789
2022-11-14T11:21:53.058Z,50.834793
2022-11-14T11:22:52.831Z,50.834797
2022-11-14T11:23:52.801Z,50.834793
2022-11-14T11:24:52.829Z,50.834789
2022-11-14T11:25:52.779Z,50.834816
2022-11-14T11:26:52.844Z,50.834801
2022-11-14T11:27:52.853Z,50.834805
2022-11-14T11:28:52.792Z,50.834808
2022-11-14T11:29:52.762Z,50.834801
2022-11-14T11:30:54.447Z,50.834805
2022-11-14T11:31:53.741Z,50.834812
2022-11-14T11:32:52.765Z,50.834797
2022-11-14T11:33:52.729Z,50.834805
2022-11-14T11:34:52.732Z,50.834827
2022-11-14T11:35:52.741Z,50.834789
2022-11-14T11:36:52.730Z,50.834782
2022-11-14T11:37:52.715Z,50.834785
2022-11-14T11:38:52.741Z,50.834774
2022-11-14T11:39:52.702Z,50.834778
2022-11-14T11:40:52.665Z,50.834782
2022-11-14T11:42:10.287Z,50.834782
2022-11-14T11:43:36.625Z,50.834801
2022-11-14T11:43:57.064Z,50.834808
2022-11-14T11:44:53.684Z,50.834824
2022-11-14T11:45:52.641Z,50.834835
2022-11-14T11:46:52.670Z,50.834812
2022-11-14T11:47:52.692Z,50.834808
2022-11-14T11:48:52.615Z,50.834797
2022-11-14T11:49:54.791Z,50.834766
2022-11-14T11:50:53.629Z,50.834789
2022-11-14T11:51:52.600Z,50.834789
2022-11-14T11:52:52.587Z,50.834789
2022-11-14T11:53:52.580Z,50.834782
2022-11-14T11:54:52.586Z,50.834778
2022-11-14T11:55:52.635Z,50.834782
2022-11-14T11:56:52.594Z,50.834797
2022-11-14T11:57:52.725Z,50.834789
2022-11-14T11:58:52.584Z,50.834793